Time;durP1;ratioP1;P1;durP2;ratioP2;P2;SDS_P1;SDS_P2;PMS_P1;PMS_P2;Temp;Humidity;BMP_temperature;BMP_pressure;BME280_temperature;BME280_humidity;BME280_pressure;Samples;Min_cycle;Max_cycle;Signal;HPM_P1;HPM_P2
2023/06/27 00:00:13;;;;;;;;;;;;;;;25.04;42.22;101386.59;5061762;28;20005;-80
2023/06/27 00:02:39;;;;;;;;;;;;;;;24.97;42.66;101385.16;5058201;28;19925;-79
2023/06/27 00:05:05;;;;;;;;;;;;;;;24.94;42.20;101380.31;5064946;28;19923;-80
2023/06/27 00:07:30;;;;;;;;;;;;;;;24.92;42.32;101379.84;5060443;28;20336;-79
2023/06/27 00:09:55;;;;;;;;;;;;;;;24.89;42.17;101377.75;5061885;28;19916;-79
2023/06/27 00:12:21;;;;;;;;;;;;;;;24.83;42.16;101378.28;5063468;28;19920;-80
2023/06/27 00:14:47;;;;;;;;;;;;;;;24.80;42.13;101367.97;5064857;28;19966;-80
2023/06/27 00:17:12;;;;;;;;;;;;;;;24.73;42.31;101379.44;5067395;28;19952;-79
2023/06/27 00:19:38;;;;;;;;;;;;;;;24.73;42.41;101376.69;5063590;28;20021;-79
2023/06/27 00:22:09;;;;;;;;;;;;;;;24.71;42.23;101378.97;5061877;28;19923;-80
2023/06/27 00:24:34;;;;;;;;;;;;;;;24.67;42.40;101375.28;5057119;28;19920;-80
2023/06/27 00:26:59;;;;;;;;;;;;;;;24.65;42.33;101388.50;5061733;28;19923;-80
2023/06/27 00:29:26;;;;;;;;;;;;;;;24.62;42.18;101379.00;5061498;28;19921;-79
2023/06/27 00:31:51;;;;;;;;;;;;;;;24.58;42.26;101380.75;5058997;28;19932;-79
2023/06/27 00:34:16;;;;;;;;;;;;;;;24.50;42.22;101380.81;5061669;28;19920;-80
2023/06/27 00:36:41;;;;;;;;;;;;;;;24.41;42.49;101376.13;5058676;28;19928;-80
2023/06/27 00:39:07;;;;;;;;;;;;;;;24.36;42.49;101381.00;5059988;28;19928;-80
2023/06/27 00:41:32;;;;;;;;;;;;;;;24.32;42.30;101389.06;5060416;28;20861;-80
2023/06/27 00:43:57;;;;;;;;;;;;;;;24.23;42.52;101382.75;5060828;28;20403;-80
2023/06/27 00:46:32;;;;;;;;;;;;;;;24.19;42.42;101390.00;5062154;28;20410;-80
2023/06/27 00:48:57;;;;;;;;;;;;;;;24.17;42.35;101381.31;5061919;28;20016;-80
2023/06/27 00:51:22;;;;;;;;;;;;;;;24.15;42.41;101396.47;5065099;28;20392;-79
2023/06/27 00:53:48;;;;;;;;;;;;;;;24.09;42.37;101387.63;5061844;28;19917;-80
2023/06/27 00:56:13;;;;;;;;;;;;;;;24.07;42.54;101395.34;5065562;28;19924;-80
2023/06/27 00:58:38;;;;;;;;;;;;;;;24.06;42.21;101394.56;5064342;28;19923;-80
2023/06/27 01:01:04;;;;;;;;;;;;;;;24.02;42.31;101388.09;5062230;28;19969;-80
2023/06/27 01:03:32;;;;;;;;;;;;;;;24.03;42.26;101394.38;5069051;28;19921;-80
2023/06/27 01:05:58;;;;;;;;;;;;;;;24.00;42.33;101400.50;5057445;28;20392;-79
2023/06/27 01:08:23;;;;;;;;;;;;;;;23.95;42.52;101397.94;5062629;28;19975;-79
2023/06/27 01:10:52;;;;;;;;;;;;;;;23.88;42.44;101401.16;5061672;28;19923;-80
2023/06/27 01:13:29;;;;;;;;;;;;;;;23.87;42.62;101401.47;5058297;28;19916;-79
2023/06/27 01:15:56;;;;;;;;;;;;;;;23.86;42.54;101399.84;5062370;28;19989;-80
2023/06/27 01:18:21;;;;;;;;;;;;;;;23.85;42.53;101393.56;5061404;28;19970;-79
2023/06/27 01:20:49;;;;;;;;;;;;;;;23.77;42.45;101399.84;5056890;28;19920;-79
2023/06/27 01:23:17;;;;;;;;;;;;;;;23.73;42.46;101396.97;5057472;28;19926;-80
2023/06/27 01:25:43;;;;;;;;;;;;;;;23.69;42.45;101395.97;5058215;28;19916;-79
2023/06/27 01:28:14;;;;;;;;;;;;;;;23.68;42.57;101393.56;5059903;28;19932;-80
2023/06/27 01:30:40;;;;;;;;;;;;;;;23.60;42.60;101389.69;5059601;28;19939;-80
2023/06/27 01:33:16;;;;;;;;;;;;;;;23.58;42.48;101391.97;5059907;28;20404;-79
2023/06/27 01:35:51;;;;;;;;;;;;;;;23.51;42.62;101395.13;5059592;28;19927;-80
2023/06/27 01:38:24;;;;;;;;;;;;;;;23.46;42.84;101394.47;5061846;28;19954;-79
2023/06/27 01:40:51;;;;;;;;;;;;;;;23.41;42.85;101398.16;5060184;28;20480;-79
2023/06/27 01:43:16;;;;;;;;;;;;;;;23.37;42.92;101399.13;5057630;28;19996;-79
2023/06/27 01:45:42;;;;;;;;;;;;;;;23.27;43.28;101397.50;5062176;28;20011;-79
2023/06/27 01:48:08;;;;;;;;;;;;;;;23.21;43.01;101390.56;5060216;28;19986;-79
2023/06/27 01:50:34;;;;;;;;;;;;;;;23.14;43.51;101395.69;5061383;28;20639;-79
2023/06/27 01:52:59;;;;;;;;;;;;;;;23.09;43.58;101393.09;5059030;28;19955;-79
2023/06/27 01:55:25;;;;;;;;;;;;;;;23.06;43.51;101401.94;5058294;28;19946;-79
2023/06/27 01:57:50;;;;;;;;;;;;;;;23.05;43.41;101398.38;5059853;28;19979;-79
2023/06/27 02:00:16;;;;;;;;;;;;;;;23.04;43.31;101404.19;5057521;28;20369;-80
2023/06/27 02:02:41;;;;;;;;;;;;;;;22.99;43.79;101401.59;5057678;28;19924;-79
2023/06/27 02:05:07;;;;;;;;;;;;;;;22.98;43.35;101399.94;5054837;28;19924;-79
2023/06/27 02:07:33;;;;;;;;;;;;;;;22.90;43.57;101401.53;5057361;28;19921;-82
2023/06/27 02:09:58;;;;;;;;;;;;;;;22.83;43.61;101401.19;5064245;28;19924;-79
2023/06/27 02:12:23;;;;;;;;;;;;;;;22.79;43.52;101391.97;5057867;28;20307;-79
2023/06/27 02:14:48;;;;;;;;;;;;;;;22.75;44.11;101396.47;5057103;28;20291;-79
2023/06/27 02:17:14;;;;;;;;;;;;;;;22.71;44.46;101392.75;5058514;28;19942;-80
2023/06/27 02:19:39;;;;;;;;;;;;;;;22.68;43.97;101398.84;5055864;28;19923;-79
2023/06/27 02:22:05;;;;;;;;;;;;;;;22.66;44.09;101401.88;5059301;28;19916;-79
2023/06/27 02:24:30;;;;;;;;;;;;;;;22.65;44.11;101407.66;5053252;28;19947;-79
2023/06/27 02:26:55;;;;;;;;;;;;;;;22.60;44.32;101393.00;5054723;28;19920;-80
2023/06/27 02:29:21;;;;;;;;;;;;;;;22.59;44.22;101394.13;5060970;28;20512;-79
2023/06/27 02:31:46;;;;;;;;;;;;;;;22.59;44.18;101402.31;5055540;28;19928;-79
2023/06/27 02:34:12;;;;;;;;;;;;;;;22.57;44.13;101392.84;5058118;28;19932;-79
2023/06/27 02:36:37;;;;;;;;;;;;;;;22.56;43.97;101389.28;5055489;28;19999;-79
2023/06/27 02:39:03;;;;;;;;;;;;;;;22.51;43.93;101388.63;5057884;28;20347;-79
2023/06/27 02:41:28;;;;;;;;;;;;;;;22.44;44.19;101383.63;5057923;28;19916;-79
2023/06/27 02:43:54;;;;;;;;;;;;;;;22.40;44.21;101390.81;5058082;28;20388;-78
2023/06/27 02:46:19;;;;;;;;;;;;;;;22.35;44.51;101392.88;5058456;28;19920;-80
2023/06/27 02:48:44;;;;;;;;;;;;;;;22.31;44.41;101395.41;5059541;28;20020;-79
2023/06/27 02:51:09;;;;;;;;;;;;;;;22.31;44.46;101395.41;5056423;28;19944;-79
2023/06/27 02:53:35;;;;;;;;;;;;;;;22.29;44.67;101398.47;5064583;28;20578;-79
2023/06/27 02:56:02;;;;;;;;;;;;;;;22.35;44.53;101403.78;5063603;28;19923;-79
2023/06/27 02:58:31;;;;;;;;;;;;;;;22.27;44.71;101400.69;5063164;28;20373;-79
2023/06/27 03:00:59;;;;;;;;;;;;;;;22.24;44.91;101397.75;5062397;28;20427;-79
2023/06/27 03:03:24;;;;;;;;;;;;;;;22.27;44.97;101397.16;5059691;28;19934;-79
2023/06/27 03:05:50;;;;;;;;;;;;;;;22.28;44.56;101393.31;5065409;28;19916;-79
2023/06/27 03:08:16;;;;;;;;;;;;;;;22.26;44.94;101398.25;5062926;28;19993;-78
2023/06/27 03:10:41;;;;;;;;;;;;;;;22.26;45.29;101398.25;5059277;28;19920;-80
2023/06/27 03:13:07;;;;;;;;;;;;;;;22.28;45.04;101402.31;5062121;28;19924;-79
2023/06/27 03:15:32;;;;;;;;;;;;;;;22.28;45.15;101399.59;5063304;28;19916;-78
2023/06/27 03:17:57;;;;;;;;;;;;;;;22.32;44.83;101402.50;5059460;28;19932;-79
2023/06/27 03:20:23;;;;;;;;;;;;;;;22.25;45.16;101399.38;5061309;28;19948;-79
2023/06/27 03:22:48;;;;;;;;;;;;;;;22.22;45.04;101406.25;5056854;28;20008;-79
2023/06/27 03:25:13;;;;;;;;;;;;;;;22.22;45.17;101402.72;5060013;28;19917;-79
2023/06/27 03:27:39;;;;;;;;;;;;;;;22.17;45.40;101400.94;5056884;28;19948;-79
2023/06/27 03:30:04;;;;;;;;;;;;;;;22.20;45.47;101399.50;5065225;28;19916;-78
2023/06/27 03:32:30;;;;;;;;;;;;;;;22.22;45.78;101410.91;5062213;28;19967;-78
2023/06/27 03:34:55;;;;;;;;;;;;;;;22.20;45.41;101410.41;5063666;28;19916;-79
2023/06/27 03:37:21;;;;;;;;;;;;;;;22.19;45.55;101408.81;5064555;28;19931;-79
2023/06/27 03:39:46;;;;;;;;;;;;;;;22.18;45.38;101412.66;5062572;28;19991;-79
2023/06/27 03:42:11;;;;;;;;;;;;;;;22.13;45.85;101415.53;5058155;28;19920;-78
2023/06/27 03:44:37;;;;;;;;;;;;;;;22.12;45.75;101422.09;5056185;28;19924;-78
2023/06/27 03:47:02;;;;;;;;;;;;;;;22.06;45.71;101415.94;5064000;28;19916;-78
2023/06/27 03:49:28;;;;;;;;;;;;;;;22.07;45.97;101428.47;5059511;28;20378;-79
2023/06/27 03:51:53;;;;;;;;;;;;;;;22.06;46.55;101420.59;5059600;28;19921;-79
2023/06/27 03:54:18;;;;;;;;;;;;;;;22.10;46.10;101429.78;5059067;28;19920;-79
2023/06/27 03:56:44;;;;;;;;;;;;;;;22.12;45.95;101424.81;5059821;28;20438;-80
2023/06/27 03:59:09;;;;;;;;;;;;;;;22.18;46.13;101418.13;5063775;28;19924;-80
2023/06/27 04:01:34;;;;;;;;;;;;;;;22.19;45.71;101427.91;5060938;28;19916;-79
2023/06/27 04:04:00;;;;;;;;;;;;;;;22.15;46.87;101427.72;5057129;28;19924;-78
2023/06/27 04:06:25;;;;;;;;;;;;;;;22.17;46.13;101424.69;5061336;28;19921;-78
2023/06/27 04:08:50;;;;;;;;;;;;;;;22.18;46.23;101415.38;5058134;28;21732;-79
2023/06/27 04:11:16;;;;;;;;;;;;;;;22.16;46.12;101409.44;5059712;28;20595;-78
2023/06/27 04:13:41;;;;;;;;;;;;;;;22.18;46.07;101415.38;5058466;28;19957;-78
2023/06/27 04:16:06;;;;;;;;;;;;;;;22.19;46.01;101414.28;5057038;28;20003;-77
2023/06/27 04:18:32;;;;;;;;;;;;;;;22.18;46.46;101429.03;5058274;28;19917;-78
2023/06/27 04:20:57;;;;;;;;;;;;;;;22.18;46.20;101427.09;5063340;28;19962;-78
2023/06/27 04:23:22;;;;;;;;;;;;;;;22.15;46.49;101429.66;5061229;28;19924;-78
2023/06/27 04:26:04;;;;;;;;;;;;;;;22.14;46.36;101437.03;5059497;28;20289;-78
2023/06/27 04:28:30;;;;;;;;;;;;;;;22.12;47.03;101409.25;5057661;28;19916;-79
2023/06/27 04:30:56;;;;;;;;;;;;;;;22.08;46.63;101429.25;5068612;28;19916;-78
2023/06/27 04:33:22;;;;;;;;;;;;;;;22.10;46.75;101438.78;5058227;28;20630;-81
2023/06/27 04:35:47;;;;;;;;;;;;;;;22.12;46.88;101424.81;5056792;28;19916;-81
2023/06/27 04:38:14;;;;;;;;;;;;;;;22.17;46.62;101428.22;5061164;28;19916;-80
2023/06/27 04:40:41;;;;;;;;;;;;;;;22.16;46.85;101426.63;5063187;28;19916;-80
2023/06/27 04:43:06;;;;;;;;;;;;;;;22.19;46.83;101433.38;5058162;28;20346;-81
2023/06/27 04:45:32;;;;;;;;;;;;;;;22.18;46.56;101429.84;5059634;28;19920;-80
2023/06/27 04:47:57;;;;;;;;;;;;;;;22.19;46.88;101419.72;5061825;28;19921;-80
2023/06/27 04:50:22;;;;;;;;;;;;;;;22.22;46.72;101430.81;5061530;28;20002;-81
2023/06/27 04:52:48;;;;;;;;;;;;;;;22.31;46.67;101423.53;5062276;28;20463;-81
2023/06/27 04:55:13;;;;;;;;;;;;;;;22.43;46.76;101417.47;5057901;28;19920;-78
2023/06/27 04:57:38;;;;;;;;;;;;;;;22.53;46.39;101424.63;5059284;28;19916;-78
2023/06/27 05:00:06;;;;;;;;;;;;;;;22.62;46.41;101428.19;5066504;28;19920;-78
2023/06/27 05:02:31;;;;;;;;;;;;;;;22.71;46.40;101426.34;5056967;28;20438;-78
2023/06/27 05:04:56;;;;;;;;;;;;;;;22.76;46.30;101428.13;5061237;28;19942;-78
2023/06/27 05:07:22;;;;;;;;;;;;;;;22.79;46.47;101422.03;5061461;28;19998;-79
2023/06/27 05:09:47;;;;;;;;;;;;;;;22.87;46.33;101418.56;5058230;28;20317;-78
2023/06/27 05:12:12;;;;;;;;;;;;;;;23.00;46.07;101428.59;5062865;28;19921;-78
2023/06/27 05:14:37;;;;;;;;;;;;;;;23.04;46.02;101423.31;5059764;28;19917;-78
2023/06/27 05:17:03;;;;;;;;;;;;;;;23.17;45.64;101422.41;5060216;28;20357;-77
2023/06/27 05:19:29;;;;;;;;;;;;;;;23.19;45.88;101431.91;5060145;28;19928;-80
2023/06/27 05:21:54;;;;;;;;;;;;;;;23.30;45.78;101426.13;5061548;28;19921;-80
2023/06/27 05:24:19;;;;;;;;;;;;;;;23.43;45.53;101420.53;5061622;28;19916;-80
2023/06/27 05:26:44;;;;;;;;;;;;;;;23.52;45.38;101432.31;5062745;28;20351;-77
2023/06/27 05:29:10;;;;;;;;;;;;;;;23.62;45.03;101438.63;5060904;28;19999;-78
2023/06/27 05:31:35;;;;;;;;;;;;;;;23.64;45.01;101437.16;5056703;28;20011;-77
2023/06/27 05:34:00;;;;;;;;;;;;;;;23.63;45.14;101424.63;5057757;28;19921;-77
2023/06/27 05:36:26;;;;;;;;;;;;;;;23.69;45.02;101433.47;5059351;28;19994;-78
2023/06/27 05:38:51;;;;;;;;;;;;;;;23.79;44.79;101427.69;5058752;28;19920;-78
2023/06/27 05:41:18;;;;;;;;;;;;;;;23.84;44.81;101432.19;5056983;28;20346;-77
2023/06/27 05:43:44;;;;;;;;;;;;;;;23.90;44.75;101429.00;5057678;28;19923;-77
2023/06/27 05:46:09;;;;;;;;;;;;;;;23.98;44.77;101425.47;5066359;28;19959;-77
2023/06/27 05:48:34;;;;;;;;;;;;;;;24.07;44.41;101433.69;5055050;28;20412;-77
2023/06/27 05:51:00;;;;;;;;;;;;;;;24.19;44.29;101433.81;5060368;28;19927;-77
2023/06/27 05:53:25;;;;;;;;;;;;;;;24.22;44.01;101433.16;5057117;28;19935;-77
2023/06/27 05:55:50;;;;;;;;;;;;;;;24.22;43.81;101438.66;5058605;28;19921;-78
2023/06/27 05:58:16;;;;;;;;;;;;;;;24.18;43.97;101439.63;5055927;28;19920;-77
2023/06/27 06:00:41;;;;;;;;;;;;;;;24.26;43.97;101434.16;5057789;28;19920;-78
2023/06/27 06:03:06;;;;;;;;;;;;;;;24.37;44.06;101438.19;5058126;28;19924;-78
2023/06/27 06:05:31;;;;;;;;;;;;;;;24.50;43.65;101443.81;5057257;28;19916;-77
2023/06/27 06:07:57;;;;;;;;;;;;;;;24.54;43.39;101444.75;5057054;28;19917;-78
2023/06/27 06:10:23;;;;;;;;;;;;;;;24.61;43.68;101445.09;5058169;28;21067;-78
2023/06/27 06:12:48;;;;;;;;;;;;;;;24.76;43.37;101447.28;5057353;28;19920;-78
2023/06/27 06:15:14;;;;;;;;;;;;;;;24.82;43.10;101458.88;5061957;28;19927;-77
2023/06/27 06:17:39;;;;;;;;;;;;;;;24.87;43.06;101455.97;5057053;28;19925;-77
2023/06/27 06:20:10;;;;;;;;;;;;;;;24.89;43.03;101470.94;5060464;28;19920;-77
2023/06/27 06:22:36;;;;;;;;;;;;;;;24.88;42.63;101463.84;5055865;28;19940;-77
2023/06/27 06:25:02;;;;;;;;;;;;;;;24.86;42.42;101471.59;5061046;28;19920;-77
2023/06/27 06:27:28;;;;;;;;;;;;;;;24.87;42.38;101473.22;5062328;28;19916;-77
2023/06/27 06:29:53;;;;;;;;;;;;;;;24.92;42.25;101472.22;5060926;28;19921;-77
2023/06/27 06:32:18;;;;;;;;;;;;;;;25.06;42.55;101474.78;5063444;28;19966;-78
2023/06/27 06:34:44;;;;;;;;;;;;;;;25.09;41.83;101479.63;5061389;28;20337;-79
2023/06/27 06:37:09;;;;;;;;;;;;;;;25.02;41.87;101476.59;5057495;28;19917;-78
2023/06/27 06:39:35;;;;;;;;;;;;;;;25.04;41.95;101485.28;5059415;28;19966;-79
2023/06/27 06:42:00;;;;;;;;;;;;;;;25.02;41.67;101488.34;5061995;28;19959;-79
2023/06/27 06:44:25;;;;;;;;;;;;;;;24.98;41.60;101488.19;5060029;28;19955;-77
2023/06/27 06:46:51;;;;;;;;;;;;;;;25.05;41.39;101492.38;5060214;28;20469;-76
2023/06/27 06:49:16;;;;;;;;;;;;;;;25.09;41.48;101480.41;5064540;28;20384;-81
2023/06/27 06:51:41;;;;;;;;;;;;;;;25.22;41.20;101484.09;5062045;28;19928;-80
2023/06/27 06:54:06;;;;;;;;;;;;;;;25.24;40.72;101488.09;5058581;28;19924;-80
2023/06/27 06:56:32;;;;;;;;;;;;;;;25.22;40.30;101489.56;5060082;28;19917;-79
2023/06/27 06:58:57;;;;;;;;;;;;;;;25.25;40.45;101488.91;5061053;28;19916;-78
2023/06/27 07:01:23;;;;;;;;;;;;;;;25.24;39.81;101490.84;5054425;28;19920;-79
2023/06/27 07:03:48;;;;;;;;;;;;;;;25.29;39.98;101492.59;5052835;28;19921;-79
2023/06/27 07:06:14;;;;;;;;;;;;;;;25.33;39.96;101492.75;5057838;28;19950;-79
2023/06/27 07:08:39;;;;;;;;;;;;;;;25.51;40.24;101483.31;5058650;28;19956;-78
2023/06/27 07:11:04;;;;;;;;;;;;;;;25.59;39.38;101491.47;5062002;28;20009;-79
2023/06/27 07:13:29;;;;;;;;;;;;;;;25.58;39.12;101495.38;5064740;28;20501;-79
2023/06/27 07:15:55;;;;;;;;;;;;;;;25.54;39.38;101490.88;5056258;28;20366;-78
2023/06/27 07:18:20;;;;;;;;;;;;;;;25.45;38.85;101498.34;5060666;28;19924;-79
2023/06/27 07:20:46;;;;;;;;;;;;;;;25.38;39.16;101492.56;5055488;28;19971;-78
2023/06/27 07:23:11;;;;;;;;;;;;;;;25.29;39.00;101490.66;5059201;28;20447;-79
2023/06/27 07:25:38;;;;;;;;;;;;;;;25.45;39.43;101490.09;5052300;28;19927;-79
2023/06/27 07:28:04;;;;;;;;;;;;;;;25.76;39.06;101487.06;5059107;28;19916;-79
2023/06/27 07:30:29;;;;;;;;;;;;;;;25.97;38.19;101490.63;5058705;28;19927;-82
2023/06/27 07:32:54;;;;;;;;;;;;;;;26.05;38.11;101487.03;5055862;28;20391;-82
2023/06/27 07:35:19;;;;;;;;;;;;;;;26.14;37.82;101486.94;5055822;28;20418;-81
2023/06/27 07:37:45;;;;;;;;;;;;;;;26.33;37.65;101483.72;5055616;28;19924;-79
2023/06/27 07:40:10;;;;;;;;;;;;;;;26.53;37.43;101480.16;5061648;28;19921;-78
2023/06/27 07:42:35;;;;;;;;;;;;;;;26.73;37.33;101482.03;5063609;28;19916;-77
2023/06/27 07:45:01;;;;;;;;;;;;;;;26.79;37.40;101475.22;5061459;28;20410;-78
2023/06/27 07:47:26;;;;;;;;;;;;;;;26.82;37.46;101470.16;5063772;28;20443;-78
2023/06/27 07:49:51;;;;;;;;;;;;;;;26.82;35.82;101465.47;5060072;28;20408;-79
2023/06/27 07:52:17;;;;;;;;;;;;;;;26.85;36.89;101466.72;5062430;28;20399;-80
2023/06/27 07:54:42;;;;;;;;;;;;;;;26.90;36.77;101452.75;5059382;28;19947;-78
2023/06/27 07:57:07;;;;;;;;;;;;;;;27.01;36.13;101457.50;5057605;28;19916;-78
2023/06/27 07:59:33;;;;;;;;;;;;;;;26.95;36.10;101461.59;5064174;28;19960;-78
2023/06/27 08:01:58;;;;;;;;;;;;;;;26.97;36.16;101464.00;5065038;28;19924;-79
2023/06/27 08:04:23;;;;;;;;;;;;;;;27.09;36.28;101456.59;5060711;28;19920;-78
2023/06/27 08:06:49;;;;;;;;;;;;;;;27.30;36.16;101451.00;5059211;28;19948;-78
2023/06/27 08:09:14;;;;;;;;;;;;;;;27.44;34.91;101447.06;5055016;28;19916;-79
2023/06/27 08:11:39;;;;;;;;;;;;;;;27.52;34.33;101457.97;5056157;28;20632;-78
2023/06/27 08:14:05;;;;;;;;;;;;;;;27.45;34.28;101457.72;5055875;28;20491;-79
2023/06/27 08:16:30;;;;;;;;;;;;;;;27.33;34.70;101447.56;5057425;28;20650;-82
2023/06/27 08:18:56;;;;;;;;;;;;;;;27.31;34.89;101444.34;5059498;28;19966;-81
2023/06/27 08:21:21;;;;;;;;;;;;;;;27.37;33.99;101448.47;5057300;28;19924;-80
2023/06/27 08:23:46;;;;;;;;;;;;;;;27.49;34.70;101435.84;5056369;28;19974;-81
2023/06/27 08:26:18;;;;;;;;;;;;;;;27.64;33.58;101438.69;5056424;28;19931;-79
2023/06/27 08:28:44;;;;;;;;;;;;;;;27.67;34.55;101435.28;5059406;28;19927;-78
2023/06/27 08:31:10;;;;;;;;;;;;;;;27.62;34.30;101438.22;5056429;28;20384;-77
2023/06/27 08:33:35;;;;;;;;;;;;;;;27.55;33.64;101437.22;5056933;28;20338;-80
2023/06/27 08:36:01;;;;;;;;;;;;;;;27.48;33.38;101442.50;5058293;28;19932;-78
2023/06/27 08:38:26;;;;;;;;;;;;;;;27.52;33.90;101429.66;5056431;28;19920;-77
2023/06/27 08:40:53;;;;;;;;;;;;;;;27.75;34.20;101432.72;5056651;28;19982;-78
2023/06/27 08:43:18;;;;;;;;;;;;;;;27.91;33.66;101431.66;5054381;28;19921;-77
2023/06/27 08:45:44;;;;;;;;;;;;;;;27.91;32.87;101430.84;5054291;28;19923;-77
2023/06/27 08:48:11;;;;;;;;;;;;;;;27.91;33.88;101428.09;5052209;28;19927;-78
2023/06/27 08:50:41;;;;;;;;;;;;;;;27.99;33.76;101433.44;5052166;28;19920;-77
2023/06/27 08:53:07;;;;;;;;;;;;;;;28.18;33.05;101412.72;5059123;28;19920;-79
2023/06/27 08:55:44;;;;;;;;;;;;;;;28.22;33.00;101417.19;5053337;28;19925;-79
2023/06/27 08:58:13;;;;;;;;;;;;;;;28.20;33.11;101411.22;5060513;28;19971;-80
2023/06/27 09:00:38;;;;;;;;;;;;;;;28.24;32.57;101419.59;5060623;28;19967;-80
2023/06/27 09:03:04;;;;;;;;;;;;;;;28.28;32.97;101412.25;5058596;28;19959;-79
2023/06/27 09:05:31;;;;;;;;;;;;;;;28.29;32.69;101416.59;5058030;28;19916;-81
2023/06/27 09:07:57;;;;;;;;;;;;;;;28.26;31.87;101420.06;5067466;28;20706;-81
2023/06/27 09:10:22;;;;;;;;;;;;;;;28.23;31.79;101409.72;5056893;28;20018;-80
2023/06/27 09:12:49;;;;;;;;;;;;;;;28.27;31.62;101399.63;5053732;28;20010;-81
2023/06/27 09:15:14;;;;;;;;;;;;;;;28.39;32.43;101402.31;5059495;28;19921;-80
2023/06/27 09:17:40;;;;;;;;;;;;;;;28.41;32.26;101405.53;5052948;28;19921;-80
2023/06/27 09:20:05;;;;;;;;;;;;;;;28.26;31.70;101404.34;5053662;28;19921;-77
2023/06/27 09:22:31;;;;;;;;;;;;;;;28.02;32.13;101412.69;5057604;28;19962;-78
2023/06/27 09:25:12;;;;;;;;;;;;;;;27.93;32.59;101410.06;5056228;28;20482;-78
2023/06/27 09:27:38;;;;;;;;;;;;;;;28.06;32.03;101410.03;5057177;28;19916;-78
2023/06/27 09:30:08;;;;;;;;;;;;;;;28.29;32.01;101402.81;5054263;28;20258;-78
2023/06/27 09:32:55;;;;;;;;;;;;;;;28.45;31.65;101395.38;5060181;28;20556;-77
2023/06/27 09:35:21;;;;;;;;;;;;;;;28.55;31.60;101394.88;5053029;28;20007;-77
2023/06/27 09:37:46;;;;;;;;;;;;;;;28.72;31.53;101387.38;5051530;28;20407;-76
2023/06/27 09:40:18;;;;;;;;;;;;;;;28.88;31.23;101394.53;5056772;28;19958;-78
2023/06/27 09:42:50;;;;;;;;;;;;;;;28.93;31.32;101398.19;5057318;28;20408;-77
2023/06/27 09:45:16;;;;;;;;;;;;;;;29.06;31.04;101400.47;5056985;28;19920;-77
2023/06/27 09:47:41;;;;;;;;;;;;;;;29.13;29.92;101397.91;5054462;28;19974;-78
2023/06/27 09:50:07;;;;;;;;;;;;;;;29.20;29.81;101397.25;5055550;28;19927;-80
2023/06/27 09:52:33;;;;;;;;;;;;;;;29.19;30.11;101390.94;5060315;28;19962;-80
2023/06/27 09:54:58;;;;;;;;;;;;;;;29.16;29.34;101397.19;5056002;28;19927;-78
2023/06/27 09:57:25;;;;;;;;;;;;;;;29.16;29.84;101401.91;5053233;28;19924;-77
2023/06/27 09:59:56;;;;;;;;;;;;;;;29.22;30.59;101394.94;5056457;28;19928;-78
2023/06/27 10:02:26;;;;;;;;;;;;;;;29.23;29.96;101398.50;5051562;28;19952;-77
2023/06/27 10:04:51;;;;;;;;;;;;;;;29.28;27.96;101401.81;5054193;28;20015;-77
2023/06/27 10:07:16;;;;;;;;;;;;;;;29.44;30.32;101390.69;5057320;28;20086;-78
2023/06/27 10:09:42;;;;;;;;;;;;;;;29.58;29.58;101396.56;5051281;28;20458;-77
2023/06/27 10:12:08;;;;;;;;;;;;;;;29.65;29.91;101390.41;5059122;28;19921;-78
2023/06/27 10:14:33;;;;;;;;;;;;;;;29.69;29.68;101403.13;5053070;28;19921;-78
2023/06/27 10:17:00;;;;;;;;;;;;;;;29.64;29.26;101389.63;5059375;28;20418;-77
2023/06/27 10:19:25;;;;;;;;;;;;;;;29.63;29.35;101393.53;5055758;28;19920;-78
2023/06/27 10:21:51;;;;;;;;;;;;;;;29.69;29.80;101386.56;5055582;28;19970;-78
2023/06/27 10:24:16;;;;;;;;;;;;;;;29.73;29.41;101386.63;5054859;28;19920;-78
2023/06/27 10:26:49;;;;;;;;;;;;;;;29.63;29.60;101387.22;5061090;28;19924;-78
2023/06/27 10:29:14;;;;;;;;;;;;;;;29.62;29.89;101380.06;5056347;28;20514;-78
2023/06/27 10:31:44;;;;;;;;;;;;;;;29.72;29.65;101380.31;5053405;28;20004;-78
2023/06/27 10:34:10;;;;;;;;;;;;;;;29.78;29.38;101381.59;5052119;28;19924;-78
2023/06/27 10:37:11;;;;;;;;;;;;;;;29.94;29.32;101381.53;5052887;28;20040;-78
2023/06/27 10:39:38;;;;;;;;;;;;;;;29.88;29.40;101374.72;5003060;28;20364;-78
2023/06/27 10:42:06;;;;;;;;;;;;;;;29.95;29.08;101376.81;5043760;28;19921;-79
2023/06/27 10:44:36;;;;;;;;;;;;;;;29.95;29.00;101372.06;5053150;28;20377;-77
2023/06/27 10:47:21;;;;;;;;;;;;;;;29.95;29.38;101369.31;5056228;28;19916;-77
2023/06/27 10:49:48;;;;;;;;;;;;;;;30.06;29.17;101372.31;5046820;28;19932;-78
2023/06/27 10:52:20;;;;;;;;;;;;;;;30.09;28.72;101371.59;5054975;28;19951;-77
2023/06/27 10:54:47;;;;;;;;;;;;;;;30.04;28.87;101385.72;5053084;28;19959;-78
2023/06/27 10:57:15;;;;;;;;;;;;;;;30.13;28.83;101369.69;5051467;28;19924;-80
2023/06/27 10:59:45;;;;;;;;;;;;;;;30.41;29.07;101374.16;5055502;28;20054;-79
2023/06/27 11:02:11;;;;;;;;;;;;;;;30.65;28.19;101376.56;5057486;28;19948;-78
2023/06/27 11:04:39;;;;;;;;;;;;;;;30.76;28.01;101380.31;5051352;28;20084;-77
2023/06/27 11:07:07;;;;;;;;;;;;;;;30.67;27.89;101368.69;5054351;28;19987;-77
2023/06/27 11:09:33;;;;;;;;;;;;;;;30.62;27.68;101366.25;5058248;28;19923;-77
2023/06/27 11:12:08;;;;;;;;;;;;;;;30.29;28.31;101392.50;5053355;28;19921;-78
2023/06/27 11:14:37;;;;;;;;;;;;;;;30.04;28.73;101407.81;5058003;28;19925;-79
2023/06/27 11:17:03;;;;;;;;;;;;;;;29.84;28.10;101411.72;5057728;28;19943;-78
2023/06/27 11:19:30;;;;;;;;;;;;;;;29.58;28.09;101415.09;5053816;28;20376;-80
2023/06/27 11:21:56;;;;;;;;;;;;;;;29.17;28.24;101436.63;5059401;28;19925;-77
2023/06/27 11:24:22;;;;;;;;;;;;;;;28.84;28.83;101421.19;5056159;28;20141;-78
2023/06/27 11:26:51;;;;;;;;;;;;;;;28.70;29.25;101425.53;5055795;28;20003;-77
2023/06/27 11:29:16;;;;;;;;;;;;;;;28.61;29.54;101420.22;5057956;28;19920;-77
2023/06/27 11:31:41;;;;;;;;;;;;;;;28.54;29.47;101426.31;5055856;28;20439;-81
2023/06/27 11:34:07;;;;;;;;;;;;;;;28.44;29.45;101426.88;5058121;28;20281;-81
2023/06/27 11:36:35;;;;;;;;;;;;;;;28.35;29.87;101423.44;5060809;28;20011;-80
2023/06/27 11:39:00;;;;;;;;;;;;;;;28.40;29.68;101431.50;5058660;28;19966;-81
2023/06/27 11:41:26;;;;;;;;;;;;;;;28.44;30.26;101415.84;5057641;28;19920;-80
2023/06/27 11:43:51;;;;;;;;;;;;;;;28.58;30.31;101412.66;5061586;28;19940;-81
2023/06/27 11:46:18;;;;;;;;;;;;;;;28.72;29.68;101412.19;5064745;28;19943;-82
2023/06/27 11:48:43;;;;;;;;;;;;;;;28.76;30.13;101396.56;5059216;28;19927;-80
2023/06/27 11:51:12;;;;;;;;;;;;;;;28.82;29.73;101408.94;5062688;28;19920;-79
2023/06/27 11:53:38;;;;;;;;;;;;;;;28.72;29.55;101390.94;5061587;28;19931;-77
2023/06/27 11:56:04;;;;;;;;;;;;;;;28.60;29.84;101385.53;5056123;28;19921;-77
2023/06/27 11:58:30;;;;;;;;;;;;;;;28.75;30.01;101373.72;5061402;28;20015;-77
2023/06/27 12:00:58;;;;;;;;;;;;;;;28.97;29.53;101366.78;5058224;28;19929;-76
2023/06/27 12:03:25;;;;;;;;;;;;;;;29.21;29.96;101360.22;5062613;28;19924;-78
2023/06/27 12:05:51;;;;;;;;;;;;;;;29.45;29.37;101364.72;5059049;28;20291;-80
2023/06/27 12:08:20;;;;;;;;;;;;;;;29.49;29.63;101360.09;5056803;28;19924;-77
2023/06/27 12:10:56;;;;;;;;;;;;;;;29.49;29.17;101354.56;5053816;28;19921;-79
2023/06/27 12:13:28;;;;;;;;;;;;;;;29.61;29.49;101346.13;5059508;28;20019;-78
2023/06/27 12:15:53;;;;;;;;;;;;;;;29.75;29.34;101354.72;5059037;28;19920;-78
2023/06/27 12:18:27;;;;;;;;;;;;;;;29.79;29.25;101352.81;5059316;28;19928;-79
2023/06/27 12:20:53;;;;;;;;;;;;;;;29.96;29.36;101359.06;5060485;28;20537;-77
2023/06/27 12:23:18;;;;;;;;;;;;;;;30.04;28.98;101333.22;5058377;28;19947;-78
2023/06/27 12:25:44;;;;;;;;;;;;;;;30.26;29.11;101346.25;5058707;28;19964;-78
2023/06/27 12:28:10;;;;;;;;;;;;;;;30.47;28.67;101342.25;5063150;28;19946;-78
2023/06/27 12:30:35;;;;;;;;;;;;;;;30.45;27.91;101333.53;5058345;28;19967;-79